Time;durP1;ratioP1;P1;durP2;ratioP2;P2;SDS_P1;SDS_P2;PMS_P1;PMS_P2;Temp;Humidity;BMP_temperature;BMP_pressure;BME280_temperature;BME280_humidity;BME280_pressure;Samples;Min_cycle;Max_cycle;Signal;HPM_P1;HPM_P2
2023/02/22 00:00:51;;;;;;;30.00;10.50;;;;;;;10.03;60.65;100278.44;5048003;27;101464;-81
2023/02/22 00:03:26;;;;;;;27.58;11.68;;;;;;;9.96;60.65;100267.28;5047304;27;101609;-81
2023/02/22 00:06:01;;;;;;;23.15;10.70;;;;;;;10.01;60.73;100283.75;5047075;27;96900;-81
2023/02/22 00:08:29;;;;;;;24.38;10.82;;;;;;;10.01;60.47;100288.97;5028721;27;96853;-81
2023/02/22 00:11:07;;;;;;;23.33;10.50;;;;;;;9.88;61.12;100274.53;5062633;27;101659;-81
2023/02/22 00:13:33;;;;;;;24.85;10.05;;;;;;;9.96;61.06;100293.50;5028152;27;101800;-80
2023/02/22 00:15:59;;;;;;;26.17;10.85;;;;;;;9.91;60.83;100295.41;5059456;27;97994;-81
2023/02/22 00:18:28;;;;;;;24.55;9.73;;;;;;;9.92;61.12;100302.41;5032239;27;96845;-83
2023/02/22 00:20:58;;;;;;;23.95;9.93;;;;;;;9.78;60.72;100278.38;5051647;27;101486;-81
2023/02/22 00:23:27;;;;;;;22.15;9.38;;;;;;;9.88;60.94;100300.75;5036044;27;101135;-85
2023/02/22 00:25:53;;;;;;;23.25;10.10;;;;;;;9.82;60.77;100295.72;5064221;27;96947;-80
2023/02/22 00:28:19;;;;;;;19.63;9.15;;;;;;;9.78;60.43;100294.97;5065062;27;97544;-81
2023/02/22 00:30:47;;;;;;;19.85;8.77;;;;;;;9.71;60.33;100286.41;5031103;27;101263;-80
2023/02/22 00:33:13;;;;;;;20.20;8.73;;;;;;;9.69;60.43;100284.75;5052079;27;101314;-80
2023/02/22 00:35:39;;;;;;;20.35;8.75;;;;;;;9.77;60.45;100301.09;5031105;27;97133;-80
2023/02/22 00:38:04;;;;;;;16.83;8.65;;;;;;;9.65;60.16;100288.34;5048760;27;97238;-81
2023/02/22 00:40:32;;;;;;;23.20;9.07;;;;;;;9.64;60.48;100298.00;5031642;27;101035;-81
2023/02/22 00:43:00;;;;;;;21.48;9.52;;;;;;;9.71;60.88;100312.59;5022574;27;101846;-81
2023/02/22 00:45:28;;;;;;;20.20;9.43;;;;;;;9.55;60.81;100293.03;5035296;27;96694;-81
2023/02/22 00:47:54;;;;;;;19.27;9.07;;;;;;;9.58;61.07;100306.03;5033216;27;97378;-80
2023/02/22 00:50:21;;;;;;;20.33;8.93;;;;;;;9.53;60.87;100303.53;5051297;27;101755;-81
2023/02/22 00:52:47;;;;;;;21.83;9.48;;;;;;;9.60;60.78;100322.59;5033124;27;100754;-80
2023/02/22 00:55:19;;;;;;;19.77;8.68;;;;;;;9.57;60.94;100316.56;5046512;27;97222;-81
2023/02/22 00:57:44;;;;;;;;;;;;;;;9.51;61.37;100315.84;5024520;27;97082;-80
2023/02/22 01:00:18;;;;;;;21.08;9.00;;;;;;;9.52;61.06;100319.34;5041663;27;101317;-81
2023/02/22 01:02:43;;;;;;;21.88;8.80;;;;;;;9.44;61.38;100310.84;5043733;27;100987;-80
2023/02/22 01:05:13;;;;;;;21.75;9.57;;;;;;;9.45;60.87;100323.03;5033281;27;97089;-81
2023/02/22 01:07:39;;;;;;;23.27;8.63;;;;;;;9.42;61.86;100315.25;5029259;27;97603;-81
2023/02/22 01:10:07;;;;;;;22.02;8.55;;;;;;;9.25;61.71;100290.44;5027640;27;101577;-82
2023/02/22 01:12:33;;;;;;;20.20;8.95;;;;;;;9.42;61.63;100318.72;5046497;27;101375;-81
2023/02/22 01:14:59;;;;;;;23.73;9.43;;;;;;;9.43;61.32;100317.84;5021735;27;97442;-82
2023/02/22 01:17:26;;;;;;;16.85;8.10;;;;;;;9.32;61.34;100301.56;5049149;27;97069;-84
2023/02/22 01:19:52;;;;;;;18.42;8.73;;;;;;;9.19;61.26;100276.63;5022284;27;101714;-82
2023/02/22 01:22:20;;;;;;;20.90;8.75;;;;;;;9.32;61.79;100298.94;5031538;27;101336;-81
2023/02/22 01:24:49;;;;;;;16.20;7.93;;;;;;;9.27;61.49;100296.47;5035186;27;97096;-81
2023/02/22 01:27:16;;;;;;;19.83;9.23;;;;;;;9.39;61.61;100320.59;5030819;27;96769;-82
2023/02/22 01:29:42;;;;;;;19.40;8.95;;;;;;;9.35;61.77;100313.72;4996277;27;101179;-81
2023/02/22 01:32:07;;;;;;;21.38;9.13;;;;;;;9.33;61.77;100311.13;5005061;27;101396;-81
2023/02/22 01:34:33;;;;;;;25.70;8.95;;;;;;;9.37;62.15;100318.03;5022618;27;96783;-81
2023/02/22 01:37:00;;;;;;;17.55;7.88;;;;;;;9.38;61.84;100317.09;5006635;28;97766;-81
2023/02/22 01:39:26;;;;;;;19.02;8.85;;;;;;;9.34;61.77;100306.75;4992195;27;100727;-84
2023/02/22 01:41:54;;;;;;;19.92;8.57;;;;;;;9.37;61.79;100317.16;4998941;27;101571;-81
2023/02/22 01:44:30;;;;;;;19.70;8.50;;;;;;;9.29;61.42;100310.38;5005028;27;98075;-81
2023/02/22 01:46:59;;;;;;;20.30;8.35;;;;;;;9.22;61.86;100301.00;5018973;27;96757;-83
2023/02/22 01:49:28;;;;;;;17.55;7.90;;;;;;;9.27;61.75;100325.28;4993988;27;101306;-81
2023/02/22 01:51:56;;;;;;;24.73;8.95;;;;;;;9.23;61.93;100312.31;5014424;27;102253;-81
2023/02/22 01:54:36;;;;;;;22.13;8.98;;;;;;;9.25;61.93;100324.47;4998084;27;97247;-82
2023/02/22 01:57:17;;;;;;;18.65;8.40;;;;;;;9.20;61.60;100315.88;4994253;27;97124;-83
2023/02/22 01:59:47;;;;;;;20.70;8.98;;;;;;;9.21;62.23;100312.34;4989890;28;101585;-81
2023/02/22 02:02:13;;;;;;;19.55;8.27;;;;;;;9.18;62.09;100308.97;5002553;27;101688;-84
2023/02/22 02:04:41;;;;;;;16.30;7.95;;;;;;;9.17;62.32;100315.13;4983988;27;97124;-80
2023/02/22 02:07:08;;;;;;;20.23;8.55;;;;;;;9.01;61.61;100291.97;5013640;27;97206;-81
2023/02/22 02:09:59;;;;;;;21.20;8.07;;;;;;;8.99;61.91;100293.78;4999247;27;101495;-81
2023/02/22 02:12:26;;;;;;;19.63;8.93;;;;;;;9.13;62.18;100308.22;5028595;27;98024;-81
2023/02/22 02:14:52;;;;;;;17.23;7.80;;;;;;;9.10;61.85;100313.56;5014245;27;96746;-81
2023/02/22 02:17:21;;;;;;;17.08;7.93;;;;;;;9.05;62.35;100311.94;5010698;27;96792;-81
2023/02/22 02:19:55;;;;;;;16.08;7.63;;;;;;;9.01;61.75;100306.81;4997400;28;98467;-82
2023/02/22 02:22:53;;;;;;;20.83;8.10;;;;;;;8.98;61.50;100304.28;5011259;27;101079;-82
2023/02/22 02:25:36;;;;;;;17.25;8.45;;;;;;;8.96;61.73;100306.97;5006662;27;96932;-81
2023/02/22 02:28:39;;;;;;;23.35;8.75;;;;;;;8.95;61.37;100317.47;5019887;27;97384;-81
2023/02/22 02:31:17;;;;;;;14.65;7.90;;;;;;;8.91;61.64;100315.84;5061341;27;101820;-81
2023/02/22 02:34:07;;;;;;;17.20;8.18;;;;;;;8.92;61.45;100314.94;5050547;27;101771;-80
2023/02/22 02:36:43;;;;;;;13.38;7.07;;;;;;;8.90;61.64;100316.72;5056365;27;96836;-79
2023/02/22 02:39:47;;;;;;;17.83;6.78;;;;;;;8.85;62.15;100306.41;5042698;27;98098;-79
2023/02/22 02:42:17;;;;;;;14.20;6.10;;;;;;;8.73;62.35;100291.88;5034008;27;101235;-81
2023/02/22 02:44:51;;;;;;;19.50;7.18;;;;;;;8.82;61.79;100299.47;5031229;27;101944;-79
2023/02/22 02:47:21;;;;;;;17.10;7.68;;;;;;;8.87;61.96;100315.03;5031596;27;96826;-80
2023/02/22 02:50:20;;;;;;;16.65;7.55;;;;;;;8.85;61.69;100311.63;5052290;27;96892;-79
2023/02/22 02:52:47;;;;;;;15.10;7.40;;;;;;;8.87;61.97;100316.81;5033729;27;101470;-79
2023/02/22 02:55:13;;;;;;;15.55;7.15;;;;;;;8.87;62.43;100304.56;5024290;27;101194;-80
2023/02/22 02:57:40;;;;;;;18.05;7.47;;;;;;;8.86;62.14;100302.00;5036370;27;97227;-79
2023/02/22 03:00:22;;;;;;;19.40;6.85;;;;;;;8.87;61.90;100312.44;5054292;27;97865;-79
2023/02/22 03:03:06;;;;;;;16.30;6.90;;;;;;;8.76;61.91;100288.31;5050819;27;101046;-80
2023/02/22 03:06:08;;;;;;;13.13;6.05;;;;;;;8.81;62.29;100305.63;5048953;27;101400;-79
2023/02/22 03:08:37;;;;;;;15.83;6.83;;;;;;;8.88;62.18;100311.53;5048694;27;97156;-80
2023/02/22 03:11:23;;;;;;;18.67;6.90;;;;;;;8.88;62.36;100315.94;5050605;27;96918;-79
2023/02/22 03:14:13;;;;;;;16.70;6.10;;;;;;;8.88;62.44;100318.53;5036347;27;101277;-80
2023/02/22 03:16:49;;;;;;;18.38;6.45;;;;;;;8.87;62.49;100319.41;5035334;27;101102;-80
2023/02/22 03:19:31;;;;;;;11.88;5.78;;;;;;;8.86;62.77;100318.56;5036081;27;98259;-79
2023/02/22 03:22:07;;;;;;;14.32;6.38;;;;;;;8.73;62.76;100289.25;5050403;27;97075;-79
2023/02/22 03:24:57;;;;;;;15.52;6.13;;;;;;;8.87;62.65;100309.81;5031580;27;101521;-79
2023/02/22 03:27:28;;;;;;;15.68;5.95;;;;;;;8.80;62.77;100303.03;5029392;27;101308;-80
2023/02/22 03:29:59;;;;;;;17.15;7.70;;;;;;;8.82;62.35;100298.63;5004293;27;96876;-80
2023/02/22 03:32:29;;;;;;;21.13;7.20;;;;;;;8.73;62.66;100289.25;4993384;27;97027;-79
2023/02/22 03:35:05;;;;;;;16.85;6.95;;;;;;;8.94;62.82;100319.22;5008079;27;101836;-79
2023/02/22 03:37:39;;;;;;;18.35;7.70;;;;;;;8.90;63.22;100315.00;5009188;28;101628;-79
2023/02/22 03:40:14;;;;;;;19.13;7.47;;;;;;;8.82;62.91;100299.47;4997943;27;96942;-79
2023/02/22 03:42:48;;;;;;;18.95;7.28;;;;;;;8.91;62.89;100315.84;5008147;27;97017;-80
2023/02/22 03:45:16;;;;;;;20.33;8.02;;;;;;;8.82;62.57;100303.84;5010060;27;101757;-80
2023/02/22 03:47:49;;;;;;;16.73;7.30;;;;;;;8.91;62.93;100316.69;4998271;27;101790;-79
2023/02/22 03:50:18;;;;;;;20.13;7.30;;;;;;;8.92;62.60;100321.03;4988817;27;97108;-81
2023/02/22 03:52:44;;;;;;;26.38;7.88;;;;;;;8.84;63.08;100309.88;5026039;27;96806;-80
2023/02/22 03:55:16;;;;;;;23.63;8.57;;;;;;;8.83;62.81;100309.03;4997890;27;101608;-79
2023/02/22 03:57:49;;;;;;;18.83;8.35;;;;;;;8.88;62.70;100315.94;5011375;27;101541;-81
2023/02/22 04:00:21;;;;;;;21.13;7.47;;;;;;;8.92;62.70;100323.63;5010714;27;96779;-79
2023/02/22 04:02:46;;;;;;;20.60;7.18;;;;;;;8.89;62.69;100322.88;4991069;28;97167;-79
2023/02/22 04:05:17;;;;;;;19.70;7.85;;;;;;;8.89;62.86;100323.72;4988300;27;101701;-81
2023/02/22 04:07:43;;;;;;;17.90;7.32;;;;;;;8.91;62.55;100323.69;4998198;27;101587;-80
2023/02/22 04:10:12;;;;;;;25.13;7.90;;;;;;;8.78;62.35;100303.06;5012361;28;97408;-79
2023/02/22 04:12:38;;;;;;;21.63;8.63;;;;;;;8.82;62.62;100312.56;5016818;27;97990;-80
2023/02/22 04:15:08;;;;;;;22.15;7.32;;;;;;;8.91;62.50;100331.56;5000117;27;101204;-79
2023/02/22 04:17:35;;;;;;;19.95;8.93;;;;;;;8.90;62.49;100327.19;5031247;27;100073;-81
2023/02/22 04:20:02;;;;;;;22.33;7.50;;;;;;;8.88;62.26;100324.63;5007100;28;100805;-80
2023/02/22 04:22:39;;;;;;;22.73;7.72;;;;;;;8.91;62.19;100319.31;5016086;27;96946;-82
2023/02/22 04:25:05;;;;;;;18.50;7.93;;;;;;;8.91;62.88;100329.78;4998926;27;101897;-80
2023/02/22 04:27:31;;;;;;;19.92;7.32;;;;;;;8.80;62.72;100310.88;4986943;27;101282;-84
2023/02/22 04:29:56;;;;;;;20.15;7.57;;;;;;;8.88;62.75;100326.41;5011524;27;96935;-80
2023/02/22 04:32:22;;;;;;;16.45;6.43;;;;;;;8.91;62.35;100334.16;5005782;28;97440;-80
2023/02/22 04:34:48;;;;;;;20.40;7.35;;;;;;;8.89;62.12;100322.88;5000777;27;98363;-80
2023/02/22 04:37:14;;;;;;;21.00;7.82;;;;;;;8.88;62.16;100323.78;5005134;28;101119;-80
2023/02/22 04:39:40;;;;;;;23.38;6.95;;;;;;;8.88;62.56;100322.00;4997296;27;96922;-80
2023/02/22 04:42:06;;;;;;;21.25;7.55;;;;;;;8.89;62.56;100322.88;5001359;28;97412;-79
2023/02/22 04:44:32;;;;;;;25.48;7.70;;;;;;;8.84;62.81;100305.53;4996848;27;101713;-82
2023/02/22 04:46:58;;;;;;;19.23;6.47;;;;;;;8.91;62.72;100324.53;4998611;28;101763;-79
2023/02/22 04:49:24;;;;;;;16.73;6.45;;;;;;;8.90;62.45;100322.84;5008100;27;97322;-79
2023/02/22 04:51:51;;;;;;;21.92;6.82;;;;;;;8.91;62.43;100315.84;5007975;27;97323;-82
2023/02/22 04:54:21;;;;;;;15.25;6.30;;;;;;;8.78;62.38;100294.34;4999791;27;101342;-80
2023/02/22 04:56:47;;;;;;;24.15;7.93;;;;;;;8.91;62.39;100308.00;5005961;27;101172;-80
2023/02/22 04:59:13;;;;;;;21.25;7.50;;;;;;;8.95;62.77;100309.59;4999224;27;97381;-79
2023/02/22 05:01:42;;;;;;;18.73;6.95;;;;;;;8.93;63.12;100312.28;4982728;27;97429;-79
2023/02/22 05:04:08;;;;;;;21.17;7.25;;;;;;;8.88;63.19;100306.31;5013132;27;97633;-79
2023/02/22 05:06:33;;;;;;;19.60;6.90;;;;;;;8.83;62.95;100300.34;4983877;28;101077;-82
2023/02/22 05:08:59;;;;;;;18.55;7.15;;;;;;;8.88;63.19;100311.53;5037445;27;97742;-80
2023/02/22 05:11:25;;;;;;;17.75;7.15;;;;;;;8.83;63.48;100301.19;5003248;28;96851;-79
2023/02/22 05:13:50;;;;;;;20.55;7.13;;;;;;;8.83;63.41;100301.19;4992797;27;100983;-79
2023/02/22 05:16:16;;;;;;;17.85;9.05;;;;;;;8.81;63.44;100296.88;4988197;27;101332;-79
2023/02/22 05:18:41;;;;;;;22.50;7.78;;;;;;;8.82;63.05;100302.09;4995292;27;96940;-79
2023/02/22 05:21:07;;;;;;;26.48;8.35;;;;;;;8.59;63.18;100266.06;5002621;27;97110;-79
2023/02/22 05:23:33;;;;;;;20.20;7.65;;;;;;;8.89;63.49;100309.78;5000364;27;101633;-84
2023/02/22 05:25:59;;;;;;;26.00;7.28;;;;;;;8.88;63.79;100311.53;4988755;27;101407;-80
2023/02/22 05:28:25;;;;;;;21.73;7.55;;;;;;;8.86;63.78;100302.00;5006530;27;96899;-80
2023/02/22 05:30:51;;;;;;;17.50;7.25;;;;;;;8.79;63.43;100291.72;5028953;27;97059;-80
2023/02/22 05:33:16;;;;;;;26.30;7.78;;;;;;;8.85;63.42;100301.16;5029229;27;100302;-79
2023/02/22 05:35:42;;;;;;;25.85;7.97;;;;;;;8.89;63.48;100304.53;5042797;27;101400;-81
2023/02/22 05:38:13;;;;;;;17.13;7.00;;;;;;;8.89;63.53;100312.41;5032832;27;97134;-79
2023/02/22 05:40:40;;;;;;;20.35;7.55;;;;;;;8.89;63.90;100313.25;5039773;27;97621;-79
2023/02/22 05:43:06;;;;;;;24.42;8.15;;;;;;;8.88;63.80;100313.31;5035881;27;101856;-80
2023/02/22 05:45:32;;;;;;;17.45;7.60;;;;;;;8.91;63.36;100315.84;5033113;27;101447;-80
2023/02/22 05:47:57;;;;;;;25.50;7.75;;;;;;;8.88;63.67;100321.16;5066686;27;96903;-79
2023/02/22 05:50:23;;;;;;;22.67;8.20;;;;;;;8.88;63.65;100318.53;5033475;27;97873;-83
2023/02/22 05:52:49;;;;;;;15.25;6.22;;;;;;;8.81;63.56;100308.25;5029971;27;101665;-80
2023/02/22 05:55:17;;;;;;;20.92;6.47;;;;;;;8.92;63.51;100328.03;5042069;27;100649;-79
2023/02/22 05:57:43;;;;;;;23.08;6.45;;;;;;;8.91;64.17;100329.78;5030278;27;97490;-79
2023/02/22 06:00:10;;;;;;;15.40;6.05;;;;;;;8.94;63.55;100331.47;5026810;27;97050;-80
2023/02/22 06:02:38;;;;;;;19.40;6.57;;;;;;;8.83;63.58;100313.41;5064245;27;97957;-81
2023/02/22 06:05:04;;;;;;;19.55;6.88;;;;;;;8.91;64.25;100331.56;5045743;27;97532;-80
2023/02/22 06:07:30;;;;;;;20.15;6.95;;;;;;;8.89;64.26;100339.44;5043774;27;97238;-78
2023/02/22 06:09:55;;;;;;;19.17;6.93;;;;;;;8.88;64.42;100329.88;5050157;27;97587;-78
2023/02/22 06:12:21;;;;;;;18.67;6.10;;;;;;;8.88;64.08;100332.47;5044654;27;97804;-78
2023/02/22 06:14:46;;;;;;;21.13;7.00;;;;;;;8.91;64.19;100337.63;5049817;27;98106;-78
2023/02/22 06:17:13;;;;;;;24.08;7.28;;;;;;;8.89;64.06;100334.19;5054434;27;97262;-80
2023/02/22 06:19:39;;;;;;;21.27;6.53;;;;;;;8.94;64.23;100339.31;5049820;27;96877;-81
2023/02/22 06:22:06;;;;;;;21.60;6.30;;;;;;;8.89;64.53;100334.19;5048607;27;101152;-80
2023/02/22 06:24:32;;;;;;;16.15;6.57;;;;;;;8.94;64.09;100336.69;5048524;27;97875;-79
2023/02/22 06:26:59;;;;;;;21.00;6.40;;;;;;;8.96;64.27;100342.72;5065984;27;97167;-80
2023/02/22 06:29:26;;;;;;;22.08;6.20;;;;;;;8.97;63.95;100347.94;5034883;27;96884;-80
2023/02/22 06:31:52;;;;;;;27.08;7.60;;;;;;;8.97;63.89;100341.84;5045852;27;97642;-80
2023/02/22 06:34:18;;;;;;;25.42;7.57;;;;;;;9.01;64.66;100348.72;5046703;27;100944;-78
2023/02/22 06:36:46;;;;;;;25.33;7.35;;;;;;;9.00;64.39;100345.25;5043789;27;97496;-81
2023/02/22 06:39:14;;;;;;;24.92;8.02;;;;;;;9.03;64.30;100347.78;5049597;27;97081;-82
2023/02/22 06:41:41;;;;;;;27.85;8.13;;;;;;;8.98;64.35;100335.69;5049338;27;101181;-81
2023/02/22 06:44:07;;;;;;;25.75;8.50;;;;;;;9.12;64.22;100351.91;5031312;27;100911;-80
2023/02/22 06:46:33;;;;;;;25.52;8.50;;;;;;;9.16;64.34;100358.78;5047184;27;97225;-80
2023/02/22 06:48:59;;;;;;;27.15;9.13;;;;;;;9.18;64.30;100354.34;5049018;27;97583;-80
2023/02/22 06:51:26;;;;;;;28.67;8.45;;;;;;;9.26;64.20;100359.38;5063233;27;97546;-80
2023/02/22 06:53:52;;;;;;;17.30;7.90;;;;;;;9.28;64.50;100362.81;5041922;27;97824;-79
2023/02/22 06:56:18;;;;;;;22.05;9.00;;;;;;;9.32;63.94;100374.94;5054865;27;98476;-80
2023/02/22 06:58:44;;;;;;;25.98;8.55;;;;;;;9.23;64.87;100354.22;5048229;27;97619;-79
2023/02/22 07:01:09;;;;;;;23.52;8.93;;;;;;;9.39;64.60;100375.59;5029430;27;101418;-79
2023/02/22 07:03:35;;;;;;;21.50;7.85;;;;;;;9.41;64.84;100382.53;5050719;27;97877;-79
2023/02/22 07:06:01;;;;;;;23.35;7.20;;;;;;;9.40;64.46;100378.19;5031357;27;97289;-81
2023/02/22 07:08:27;;;;;;;23.80;8.05;;;;;;;9.34;64.44;100364.38;5050770;27;99287;-82
2023/02/22 07:10:53;;;;;;;23.90;8.70;;;;;;;9.48;64.52;100388.44;5035556;27;101224;-81
2023/02/22 07:13:19;;;;;;;21.60;7.47;;;;;;;9.29;64.07;100352.28;5037718;27;101283;-81
2023/02/22 07:15:45;;;;;;;29.30;7.40;;;;;;;9.41;64.60;100366.81;5047028;27;97219;-81
2023/02/22 07:18:11;;;;;;;20.30;7.82;;;;;;;9.52;64.47;100385.69;5050129;27;97337;-80
2023/02/22 07:20:37;;;;;;;26.05;8.73;;;;;;;9.56;64.01;100389.09;5047582;27;101004;-80
2023/02/22 07:23:04;;;;;;;19.33;7.38;;;;;;;9.58;64.35;100391.69;5048248;27;101990;-80
2023/02/22 07:25:29;;;;;;;21.55;7.65;;;;;;;9.60;64.26;100389.84;5038484;27;97213;-81
2023/02/22 07:27:55;;;;;;;30.80;7.82;;;;;;;9.62;63.84;100388.03;5024048;27;97353;-81
2023/02/22 07:30:32;;;;;;;20.92;7.32;;;;;;;9.64;64.51;100391.50;5043320;27;101734;-80
2023/02/22 07:33:04;;;;;;;30.23;8.77;;;;;;;9.69;63.93;100402.72;5047502;27;101203;-80
2023/02/22 07:35:49;;;;;;;23.10;7.65;;;;;;;9.72;63.39;100395.59;5057406;27;97221;-77
2023/02/22 07:38:16;;;;;;;22.55;7.53;;;;;;;9.72;63.50;100385.13;5042764;27;97302;-79
2023/02/22 07:40:42;;;;;;;28.88;7.85;;;;;;;9.74;62.90;100391.19;5044643;27;101553;-80
2023/02/22 07:43:08;;;;;;;21.20;6.10;;;;;;;9.80;62.29;100408.47;5032483;27;101521;-79
2023/02/22 07:45:34;;;;;;;24.70;7.18;;;;;;;9.83;62.91;100394.41;5047106;27;96992;-79
2023/02/22 07:48:02;;;;;;;23.25;6.45;;;;;;;9.89;62.58;100396.84;5042161;27;96888;-79
2023/02/22 07:50:30;;;;;;;20.00;6.55;;;;;;;9.92;62.36;100395.03;5066320;27;98103;-78
2023/02/22 07:52:57;;;;;;;25.75;6.30;;;;;;;9.96;62.38;100393.16;5037575;27;102469;-78
2023/02/22 07:55:24;;;;;;;21.25;7.63;;;;;;;9.96;62.00;100396.63;5049318;27;97317;-79
2023/02/22 07:57:52;;;;;;;23.83;6.82;;;;;;;9.98;62.01;100392.22;5045813;27;97164;-80
2023/02/22 08:00:42;;;;;;;21.67;6.70;;;;;;;10.01;61.67;100400.91;5058940;27;98123;-81
2023/02/22 08:03:11;;;;;;;27.38;6.15;;;;;;;10.02;61.42;100392.97;5029112;27;101758;-80
2023/02/22 08:05:38;;;;;;;25.25;7.65;;;;;;;10.05;61.08;100395.50;5022284;27;96842;-80
2023/02/22 08:08:04;;;;;;;27.38;6.80;;;;;;;10.04;60.77;100404.28;5019548;27;96825;-80
2023/02/22 08:10:31;;;;;;;21.10;6.25;;;;;;;9.94;60.65;100385.31;5029893;27;101372;-80
2023/02/22 08:12:56;;;;;;;30.55;7.45;;;;;;;10.08;60.93;100403.28;5045530;27;97264;-80
2023/02/22 08:15:27;;;;;;;23.27;6.90;;;;;;;10.13;60.68;100404.00;5030534;27;97511;-79
2023/02/22 08:17:53;;;;;;;25.83;6.53;;;;;;;10.10;60.81;100398.84;5039955;27;97937;-80
2023/02/22 08:20:18;;;;;;;22.98;5.75;;;;;;;10.15;60.47;100398.69;5046537;27;98247;-80
2023/02/22 08:22:45;;;;;;;22.50;6.72;;;;;;;10.18;60.29;100396.84;5044558;27;97879;-80
2023/02/22 08:25:11;;;;;;;23.15;6.65;;;;;;;10.18;59.52;100382.84;5048145;27;97799;-80
2023/02/22 08:27:37;;;;;;;24.05;5.95;;;;;;;10.26;59.48;100377.38;5029265;27;97172;-80
2023/02/22 08:30:03;;;;;;;21.02;6.35;;;;;;;10.64;59.36;100402.41;5047383;27;97457;-80
2023/02/22 08:32:28;;;;;;;24.85;7.30;;;;;;;10.97;59.53;100402.19;5026826;27;101725;-80
2023/02/22 08:34:54;;;;;;;33.08;7.75;;;;;;;11.29;58.49;100393.19;5043526;27;97249;-80
2023/02/22 08:37:19;;;;;;;22.52;6.20;;;;;;;11.32;56.98;100369.44;5047992;27;97609;-80
2023/02/22 08:39:45;;;;;;;24.98;7.47;;;;;;;11.52;56.50;100390.56;5024017;27;101218;-79
2023/02/22 08:42:11;;;;;;;22.92;6.28;;;;;;;11.59;55.92;100380.69;5026498;27;101756;-80
2023/02/22 08:44:38;;;;;;;23.25;6.18;;;;;;;11.67;55.56;100386.53;5046898;27;98077;-80
2023/02/22 08:47:04;;;;;;;25.33;5.90;;;;;;;11.66;55.46;100382.16;5046214;27;97419;-80
2023/02/22 08:49:29;;;;;;;24.45;6.03;;;;;;;11.73;55.04;100381.03;5048457;27;97932;-80
2023/02/22 08:51:55;;;;;;;26.00;6.70;;;;;;;11.60;54.84;100371.03;5034311;27;101749;-80
2023/02/22 08:54:21;;;;;;;16.83;5.70;;;;;;;11.70;54.64;100375.88;5046812;27;97875;-81
2023/02/22 08:56:47;;;;;;;30.52;7.20;;;;;;;11.70;54.66;100368.00;5029946;27;97289;-76
2023/02/22 08:59:13;;;;;;;20.38;6.03;;;;;;;11.78;54.59;100380.88;5049335;27;101520;-80
2023/02/22 09:01:39;;;;;;;24.50;6.88;;;;;;;11.75;54.46;100376.56;5049090;27;97398;-80
2023/02/22 09:04:04;;;;;;;23.80;6.65;;;;;;;11.83;54.22;100380.69;5042933;27;100526;-78
2023/02/22 09:06:30;;;;;;;31.20;6.40;;;;;;;11.89;53.99;100385.72;5014259;27;98035;-77
2023/02/22 09:09:39;;;;;;;17.42;5.15;;;;;;;11.83;53.23;100381.53;5037890;27;101696;-83
2023/02/22 09:12:08;;;;;;;21.27;5.68;;;;;;;11.78;53.08;100376.47;5055001;27;102113;-81
2023/02/22 09:14:33;;;;;;;22.40;6.70;;;;;;;11.74;52.76;100376.63;5047671;27;97407;-82
2023/02/22 09:16:59;;;;;;;17.65;5.57;;;;;;;11.65;52.29;100379.59;5030141;27;97018;-82
2023/02/22 09:19:24;;;;;;;21.48;6.05;;;;;;;11.57;52.77;100385.13;5027110;27;100922;-81
2023/02/22 09:21:58;;;;;;;26.40;6.45;;;;;;;11.45;52.58;100375.94;5030619;27;101412;-82
2023/02/22 09:24:24;;;;;;;19.58;5.53;;;;;;;11.44;53.34;100383.88;5039536;27;97221;-82
2023/02/22 09:26:58;;;;;;;24.90;5.55;;;;;;;11.41;53.16;100384.84;5061285;27;96901;-83
2023/02/22 09:29:25;;;;;;;18.60;5.40;;;;;;;11.36;53.29;100383.31;5049477;27;100748;-82
2023/02/22 09:31:53;;;;;;;25.90;5.93;;;;;;;11.27;52.77;100368.72;5038465;27;101352;-83
2023/02/22 09:34:21;;;;;;;21.38;6.10;;;;;;;11.28;53.18;100373.91;5045885;27;97616;-82
2023/02/22 09:36:48;;;;;;;26.48;7.18;;;;;;;11.27;53.69;100381.88;5035637;27;97398;-82
2023/02/22 09:39:15;;;;;;;23.23;5.57;;;;;;;11.21;53.12;100379.47;5015557;27;101290;-83
2023/02/22 09:42:02;;;;;;;23.70;6.55;;;;;;;11.19;53.69;100382.13;5063827;27;97963;-85
2023/02/22 09:44:37;;;;;;;21.40;6.25;;;;;;;11.08;53.28;100369.41;5059257;27;97171;-81
2023/02/22 09:47:03;;;;;;;21.52;5.75;;;;;;;11.14;53.39;100383.19;5045428;27;97318;-81
2023/02/22 09:49:39;;;;;;;21.25;5.80;;;;;;;11.00;53.08;100370.56;5043062;27;101778;-81
2023/02/22 09:52:17;;;;;;;25.55;7.07;;;;;;;11.07;53.06;100380.78;5021868;27;100914;-81
2023/02/22 09:54:51;;;;;;;25.20;6.65;;;;;;;11.06;53.31;100388.75;5059096;27;97386;-84
2023/02/22 09:57:39;;;;;;;26.08;6.57;;;;;;;11.06;53.02;100394.84;5046741;27;97237;-80
2023/02/22 10:00:17;;;;;;;24.90;6.30;;;;;;;10.88;53.39;100356.94;5036604;27;101904;-81
2023/02/22 10:03:08;;;;;;;25.23;6.95;;;;;;;11.11;52.84;100381.53;5057027;27;101986;-85
2023/02/22 10:05:38;;;;;;;22.52;4.97;;;;;;;11.07;53.17;100379.94;5048004;27;97285;-81
2023/02/22 10:08:11;;;;;;;20.08;5.70;;;;;;;11.08;52.69;100374.66;5042078;27;97389;-81
2023/02/22 10:10:45;;;;;;;23.50;6.75;;;;;;;11.14;52.95;100377.94;5039825;27;101764;-84
2023/02/22 10:13:43;;;;;;;29.65;7.72;;;;;;;11.19;52.61;100381.28;5042833;27;98101;-83
2023/02/22 10:16:18;;;;;;;19.38;5.88;;;;;;;11.23;52.63;100377.66;5061736;27;96732;-83
2023/02/22 10:19:01;;;;;;;29.35;6.97;;;;;;;11.25;52.75;100376.66;5028051;27;97246;-84
2023/02/22 10:21:28;;;;;;;30.42;8.25;;;;;;;11.31;53.13;100381.72;5061486;27;98646;-81
2023/02/22 10:24:04;;;;;;;25.17;7.22;;;;;;;11.35;53.03;100373.72;5046360;27;99682;-83
2023/02/22 10:26:33;;;;;;;29.58;8.52;;;;;;;11.25;53.24;100345.13;5061873;27;97195;-83
2023/02/22 10:29:20;;;;;;;37.13;9.00;;;;;;;11.45;53.01;100372.44;5045520;27;97439;-82
2023/02/22 10:31:50;;;;;;;23.17;7.63;;;;;;;11.61;53.04;100367.50;5044720;27;97557;-82
2023/02/22 10:34:23;;;;;;;20.05;7.07;;;;;;;11.68;52.46;100367.19;5031489;27;101574;-83
2023/02/22 10:37:12;;;;;;;27.67;7.18;;;;;;;11.52;52.62;100348.53;5044424;27;96838;-81
2023/02/22 10:39:38;;;;;;;25.95;7.10;;;;;;;11.72;52.25;100370.56;5051926;27;97227;-81
2023/02/22 10:42:06;;;;;;;30.60;8.55;;;;;;;11.48;51.95;100354.78;5029335;27;100721;-82
2023/02/22 10:44:37;;;;;;;23.50;7.80;;;;;;;11.45;52.12;100347.00;5057753;27;101529;-82
2023/02/22 10:47:06;;;;;;;22.65;7.90;;;;;;;11.61;52.33;100364.88;5030951;27;97601;-82
2023/02/22 10:49:46;;;;;;;26.42;7.28;;;;;;;11.55;52.03;100353.66;5030306;27;97210;-80
2023/02/22 10:52:20;;;;;;;25.60;7.80;;;;;;;11.63;51.99;100369.13;5026067;27;101443;-81
2023/02/22 10:54:48;;;;;;;30.55;8.25;;;;;;;11.61;51.92;100367.50;5027779;27;100581;-84
2023/02/22 10:57:13;;;;;;;23.58;7.38;;;;;;;11.59;52.14;100359.66;5045771;27;97157;-80
2023/02/22 10:59:41;;;;;;;28.75;8.15;;;;;;;11.68;51.66;100359.31;5033241;27;97120;-87
2023/02/22 11:02:18;;;;;;;20.42;7.32;;;;;;;11.58;52.04;100357.94;5046787;27;101683;-83
2023/02/22 11:04:55;;;;;;;27.45;7.30;;;;;;;11.42;52.10;100336.63;5064663;27;98088;-86
2023/02/22 11:07:22;;;;;;;26.42;8.50;;;;;;;11.45;52.42;100359.31;5054004;27;97265;-83
2023/02/22 11:10:03;;;;;;;26.42;7.88;;;;;;;11.38;52.37;100347.31;5050570;27;97304;-83
2023/02/22 11:12:36;;;;;;;18.60;7.05;;;;;;;11.33;51.70;100336.97;5045873;27;97757;-83
2023/02/22 11:15:23;;;;;;;27.17;7.82;;;;;;;11.18;52.25;100296.34;5029519;27;101953;-83
2023/02/22 11:17:54;;;;;;;30.52;8.32;;;;;;;11.46;52.10;100347.88;5049834;27;96844;-80
2023/02/22 11:20:24;;;;;;;22.88;6.70;;;;;;;11.46;51.90;100347.88;5062788;27;97109;-81
2023/02/22 11:22:58;;;;;;;26.88;7.97;;;;;;;11.44;51.66;100339.22;5034476;27;101003;-81
2023/02/22 11:25:32;;;;;;;27.60;7.75;;;;;;;11.44;52.12;100331.31;5047921;27;101107;-80
2023/02/22 11:28:13;;;;;;;16.88;6.25;;;;;;;11.47;51.61;100336.47;5046993;27;96823;-79
2023/02/22 11:30:42;;;;;;;23.20;6.63;;;;;;;11.48;51.64;100338.16;5046543;27;96752;-79
2023/02/22 11:33:22;;;;;;;27.70;7.95;;;;;;;11.52;51.72;100343.25;5034077;27;101750;-81